createdAt,value
2023-03-10T00:00:39.348Z,119.97
2023-03-10T00:01:42.153Z,96.60
2023-03-10T00:02:49.270Z,97.30
2023-03-10T00:03:54.207Z,89.97
2023-03-10T00:04:56.444Z,111.90
2023-03-10T00:05:59.465Z,102.53
2023-03-10T00:07:02.253Z,84.43
2023-03-10T00:08:04.361Z,95.22
2023-03-10T00:09:08.183Z,96.72
2023-03-10T00:10:11.532Z,87.65
2023-03-10T00:11:14.515Z,84.93
2023-03-10T00:12:16.300Z,92.22
2023-03-10T00:13:19.059Z,95.75
2023-03-10T00:14:21.029Z,92.40
2023-03-10T00:15:24.197Z,89.55
2023-03-10T00:16:27.573Z,93.35
2023-03-10T00:17:30.679Z,90.78
2023-03-10T00:18:32.531Z,90.38
2023-03-10T00:19:36.690Z,94.55
2023-03-10T00:20:38.675Z,96.72
2023-03-10T00:21:41.575Z,100.35
2023-03-10T00:22:43.348Z,87.22
2023-03-10T00:23:46.189Z,92.68
2023-03-10T00:24:48.071Z,94.60
2023-03-10T00:26:06.158Z,91.55
2023-03-10T00:27:08.324Z,96.30
2023-03-10T00:28:11.191Z,88.53
2023-03-10T00:29:13.253Z,91.70
2023-03-10T00:30:16.701Z,89.75
2023-03-10T00:31:20.579Z,92.05
2023-03-10T00:32:23.503Z,88.43
2023-03-10T00:33:25.711Z,88.00
2023-03-10T00:34:28.481Z,86.50
2023-03-10T00:35:31.699Z,78.43
2023-03-10T00:36:35.189Z,85.95
2023-03-10T00:37:38.245Z,90.43
2023-03-10T00:38:42.570Z,78.15
2023-03-10T00:39:44.557Z,90.57
2023-03-10T00:40:47.613Z,86.18
2023-03-10T00:41:49.453Z,84.05
2023-03-10T00:42:52.256Z,84.78
2023-03-10T00:43:54.279Z,93.43
2023-03-10T00:44:57.064Z,84.50
2023-03-10T00:45:59.709Z,82.85
2023-03-10T00:47:02.639Z,87.50
2023-03-10T00:48:04.582Z,84.93
2023-03-10T00:49:09.795Z,87.47
2023-03-10T00:50:12.139Z,86.90
2023-03-10T00:51:16.424Z,90.80
2023-03-10T00:52:18.285Z,90.75
2023-03-10T00:53:21.032Z,81.00
2023-03-10T00:54:22.889Z,78.68
2023-03-10T00:55:25.699Z,88.90
2023-03-10T00:56:29.361Z,89.03
2023-03-10T00:57:32.069Z,92.93
2023-03-10T00:58:34.325Z,78.22
2023-03-10T00:59:49.424Z,81.40
2023-03-10T01:00:52.027Z,82.35
2023-03-10T01:01:55.517Z,85.35
2023-03-10T01:02:58.392Z,80.72
2023-03-10T01:04:03.130Z,77.07
2023-03-10T01:05:06.540Z,77.88
2023-03-10T01:06:09.410Z,78.60
2023-03-10T01:07:13.580Z,83.22
2023-03-10T01:08:15.505Z,83.47
2023-03-10T01:09:18.867Z,84.75
2023-03-10T01:10:21.026Z,83.55
2023-03-10T01:11:26.879Z,82.90
2023-03-10T01:12:29.035Z,80.10
2023-03-10T01:13:32.006Z,76.53
2023-03-10T01:14:34.787Z,77.00
2023-03-10T01:15:36.617Z,73.60
2023-03-10T01:16:39.625Z,77.53
2023-03-10T01:17:41.996Z,83.18
2023-03-10T01:18:44.991Z,77.72
2023-03-10T01:19:46.810Z,65.03
2023-03-10T01:20:49.982Z,73.85
2023-03-10T01:21:51.837Z,79.80
2023-03-10T01:22:56.060Z,78.03
2023-03-10T01:23:59.272Z,67.18
2023-03-10T01:25:01.991Z,69.60
2023-03-10T01:26:03.896Z,69.70
2023-03-10T01:27:06.820Z,75.97
2023-03-10T01:28:09.126Z,78.10
2023-03-10T01:29:13.454Z,67.80
2023-03-10T01:30:16.085Z,64.65
2023-03-10T01:31:19.764Z,66.72
2023-03-10T01:32:21.946Z,67.90
2023-03-10T01:33:24.855Z,60.08
2023-03-10T01:34:27.190Z,55.22
2023-03-10T01:35:30.777Z,57.72
2023-03-10T01:36:32.733Z,60.28
2023-03-10T01:37:35.507Z,56.63
2023-03-10T01:38:39.027Z,57.88
2023-03-10T01:39:42.133Z,53.08
2023-03-10T01:40:48.110Z,47.75
2023-03-10T01:41:50.840Z,47.00
2023-03-10T01:42:52.725Z,45.97
2023-03-10T01:43:56.697Z,43.85
2023-03-10T01:45:07.441Z,35.00
2023-03-10T01:46:44.970Z,40.60
2023-03-10T01:47:52.771Z,35.55
2023-03-10T01:48:56.041Z,33.67
2023-03-10T01:50:00.304Z,32.33
2023-03-10T01:51:02.798Z,33.80
2023-03-10T01:52:11.059Z,31.55
2023-03-10T01:53:13.642Z,33.38
2023-03-10T01:54:22.464Z,28.92
2023-03-10T01:55:27.322Z,27.88
2023-03-10T01:56:30.111Z,26.75
2023-03-10T01:57:36.368Z,26.58
2023-03-10T01:58:40.194Z,23.15
2023-03-10T01:59:43.270Z,26.50
2023-03-10T02:00:45.133Z,22.88
2023-03-10T02:01:48.113Z,24.48
2023-03-10T02:02:54.450Z,21.83
2023-03-10T02:04:00.169Z,19.13
2023-03-10T02:05:02.611Z,19.38
2023-03-10T02:06:11.599Z,20.50
2023-03-10T02:07:13.961Z,18.52
2023-03-10T02:08:18.342Z,16.42
2023-03-10T02:09:22.061Z,18.08
2023-03-10T02:10:24.802Z,14.93
2023-03-10T02:11:27.988Z,15.55
2023-03-10T02:12:30.733Z,17.25
2023-03-10T02:13:34.194Z,16.00
2023-03-10T02:14:37.789Z,14.85
2023-03-10T02:15:40.169Z,14.40
2023-03-10T02:16:43.295Z,17.52
2023-03-10T02:17:46.368Z,12.98
2023-03-10T02:18:48.851Z,15.25
2023-03-10T02:20:09.922Z,16.40
2023-03-10T02:21:17.124Z,16.88
2023-03-10T02:22:20.015Z,15.40
2023-03-10T02:23:25.311Z,12.98
2023-03-10T02:24:34.865Z,16.98
2023-03-10T02:25:43.554Z,17.40
2023-03-10T02:26:50.274Z,16.00
2023-03-10T02:27:56.461Z,15.30
2023-03-10T02:28:58.970Z,14.07
2023-03-10T02:30:04.006Z,14.07
2023-03-10T02:31:10.097Z,15.15
2023-03-10T02:32:13.859Z,14.13
2023-03-10T02:33:19.270Z,14.23
2023-03-10T02:34:21.081Z,13.75
2023-03-10T02:35:24.194Z,12.55
2023-03-10T02:36:31.196Z,13.93
2023-03-10T02:37:52.487Z,16.15
2023-03-10T02:38:54.826Z,11.93
2023-03-10T02:39:57.838Z,11.75
2023-03-10T02:41:01.366Z,12.38
2023-03-10T02:42:06.438Z,12.82
2023-03-10T02:43:16.094Z,15.90
2023-03-10T02:44:21.614Z,13.13
2023-03-10T02:45:25.281Z,14.40
2023-03-10T02:46:28.789Z,14.85
2023-03-10T02:47:30.855Z,13.32
2023-03-10T02:48:35.779Z,14.07
2023-03-10T02:49:40.534Z,12.75
2023-03-10T02:50:44.984Z,15.07
2023-03-10T02:51:47.511Z,12.02
2023-03-10T02:52:57.013Z,12.93
2023-03-10T02:54:00.326Z,13.77
2023-03-10T02:55:03.556Z,12.77
2023-03-10T02:56:05.821Z,13.45
2023-03-10T02:57:10.652Z,13.60
2023-03-10T02:58:14.884Z,14.20
2023-03-10T02:59:17.802Z,14.30
2023-03-10T03:00:23.995Z,10.27
2023-03-10T03:01:27.215Z,10.55
2023-03-10T03:02:31.131Z,12.95
2023-03-10T03:03:34.412Z,11.23
2023-03-10T03:04:36.290Z,10.57
2023-03-10T03:05:39.834Z,10.02
2023-03-10T03:06:41.704Z,15.55
2023-03-10T03:07:44.681Z,10.80
2023-03-10T03:08:46.633Z,14.27
2023-03-10T03:09:52.490Z,13.00
2023-03-10T03:10:54.777Z,11.00
2023-03-10T03:11:57.623Z,15.90
2023-03-10T03:12:59.757Z,12.27
2023-03-10T03:14:04.603Z,10.73
2023-03-10T03:15:08.271Z,15.32
2023-03-10T03:16:11.525Z,12.57
2023-03-10T03:17:14.567Z,13.43
2023-03-10T03:18:17.431Z,15.57
2023-03-10T03:19:19.378Z,13.30
2023-03-10T03:20:22.478Z,12.02
2023-03-10T03:21:27.518Z,14.38
2023-03-10T03:22:31.661Z,12.23
2023-03-10T03:23:35.086Z,14.75
2023-03-10T03:24:37.478Z,17.17
2023-03-10T03:25:42.305Z,14.70
2023-03-10T03:26:47.964Z,15.93
2023-03-10T03:27:54.055Z,15.65
2023-03-10T03:28:57.240Z,15.20
2023-03-10T03:30:05.752Z,18.13
2023-03-10T03:31:08.473Z,17.42
2023-03-10T03:32:11.546Z,16.02
2023-03-10T03:33:13.709Z,14.88
2023-03-10T03:34:18.088Z,16.13
2023-03-10T03:35:24.580Z,16.92
2023-03-10T03:36:27.593Z,18.40
2023-03-10T03:37:29.884Z,18.20
2023-03-10T03:38:32.756Z,18.23
2023-03-10T03:39:35.314Z,17.38
2023-03-10T03:40:44.972Z,17.52
2023-03-10T03:41:49.142Z,18.30
2023-03-10T03:42:54.060Z,16.92
2023-03-10T03:43:56.224Z,15.23
2023-03-10T03:44:58.987Z,15.63
2023-03-10T03:46:02.495Z,18.13
2023-03-10T03:47:08.781Z,17.52
2023-03-10T03:48:12.992Z,18.85
2023-03-10T03:49:16.864Z,15.00
2023-03-10T03:50:21.269Z,19.13
2023-03-10T03:51:24.921Z,17.35
2023-03-10T03:52:27.485Z,21.17
2023-03-10T03:53:32.318Z,20.65
2023-03-10T03:54:34.376Z,19.75
2023-03-10T03:55:37.261Z,19.85
2023-03-10T03:56:39.806Z,20.02
2023-03-10T03:57:44.854Z,19.48
2023-03-10T03:58:46.747Z,18.13
2023-03-10T03:59:50.198Z,20.13
2023-03-10T04:00:52.454Z,18.35
2023-03-10T04:01:57.167Z,19.65
2023-03-10T04:02:59.721Z,18.35
2023-03-10T04:04:03.992Z,19.70
2023-03-10T04:05:07.866Z,18.10
2023-03-10T04:06:11.163Z,25.52
2023-03-10T04:07:13.816Z,20.90
2023-03-10T04:08:16.942Z,16.73
2023-03-10T04:09:18.748Z,23.02
2023-03-10T04:10:23.606Z,25.30
2023-03-10T04:11:25.963Z,19.25
2023-03-10T04:12:29.580Z,19.58
2023-03-10T04:13:32.463Z,24.25
2023-03-10T04:14:35.345Z,40.58
2023-03-10T04:15:38.199Z,37.35
2023-03-10T04:16:40.024Z,53.22
2023-03-10T04:17:44.820Z,32.33
2023-03-10T04:18:46.748Z,30.95
2023-03-10T04:20:06.260Z,20.63
2023-03-10T04:21:09.823Z,21.42
2023-03-10T04:22:13.122Z,24.42
2023-03-10T04:23:15.633Z,26.80
2023-03-10T04:24:18.495Z,19.50
2023-03-10T04:25:20.611Z,22.67
2023-03-10T04:26:23.840Z,18.92
2023-03-10T04:27:25.931Z,19.55
2023-03-10T04:28:29.533Z,18.55
2023-03-10T04:29:31.487Z,24.20
2023-03-10T04:30:35.662Z,18.83
2023-03-10T04:31:38.144Z,22.67
2023-03-10T04:32:44.006Z,21.50
2023-03-10T04:33:46.023Z,18.58
2023-03-10T04:34:49.988Z,22.63
2023-03-10T04:35:53.589Z,54.17
2023-03-10T04:36:58.189Z,22.10
2023-03-10T04:38:00.117Z,24.83
2023-03-10T04:39:05.028Z,26.92
2023-03-10T04:40:10.237Z,117.32
2023-03-10T04:41:13.345Z,25.40
2023-03-10T04:42:18.769Z,23.80
2023-03-10T04:43:22.013Z,33.40
2023-03-10T04:44:30.945Z,42.20
2023-03-10T04:45:35.716Z,35.45
2023-03-10T04:46:38.333Z,35.35
2023-03-10T04:47:43.942Z,39.03
2023-03-10T04:48:46.454Z,41.63
2023-03-10T04:49:50.349Z,37.45
2023-03-10T04:50:55.837Z,36.92
2023-03-10T04:51:59.218Z,38.28
2023-03-10T04:53:02.463Z,39.47
2023-03-10T04:54:05.992Z,74.22
2023-03-10T04:55:09.697Z,28.58
2023-03-10T04:56:11.859Z,34.88
2023-03-10T04:57:16.262Z,32.90
2023-03-10T04:58:19.396Z,27.90
2023-03-10T04:59:22.343Z,29.10
2023-03-10T05:00:24.649Z,45.60
2023-03-10T05:01:32.883Z,58.65
2023-03-10T05:02:38.936Z,29.05
2023-03-10T05:03:43.047Z,59.97
2023-03-10T05:04:45.861Z,206.18
2023-03-10T05:05:48.761Z,284.27
2023-03-10T05:06:50.903Z,171.18
2023-03-10T05:07:59.135Z,49.28
2023-03-10T05:09:04.121Z,31.35
2023-03-10T05:10:08.691Z,28.45
2023-03-10T05:11:11.249Z,24.13
2023-03-10T05:12:14.309Z,36.15
2023-03-10T05:13:16.845Z,22.20
2023-03-10T05:14:20.224Z,28.40
2023-03-10T05:15:23.625Z,30.75
2023-03-10T05:16:26.607Z,30.85
2023-03-10T05:17:30.185Z,29.83
2023-03-10T05:18:33.635Z,58.95
2023-03-10T05:19:38.209Z,56.78
2023-03-10T05:20:40.372Z,106.50
2023-03-10T05:21:43.369Z,80.10
2023-03-10T05:22:46.420Z,57.13
2023-03-10T05:23:48.692Z,294.63
2023-03-10T05:24:52.206Z,39.67
2023-03-10T05:25:53.980Z,26.25
2023-03-10T05:26:58.418Z,33.30
2023-03-10T05:28:00.496Z,41.47
2023-03-10T05:29:06.183Z,144.15
2023-03-10T05:30:22.959Z,126.80
2023-03-10T05:31:28.611Z,44.78
2023-03-10T05:32:38.564Z,38.92
2023-03-10T05:33:40.869Z,34.28
2023-03-10T05:34:45.429Z,40.30
2023-03-10T05:35:47.677Z,38.53
2023-03-10T05:36:50.550Z,35.42
2023-03-10T05:37:52.770Z,40.22
2023-03-10T05:38:55.562Z,40.83
2023-03-10T05:39:59.216Z,36.72
2023-03-10T05:41:02.192Z,40.15
2023-03-10T05:42:05.432Z,40.85
2023-03-10T05:43:09.362Z,37.35
2023-03-10T05:44:12.307Z,31.75
2023-03-10T05:45:15.496Z,32.33
2023-03-10T05:46:19.036Z,40.92
2023-03-10T05:47:26.869Z,43.45
2023-03-10T05:48:29.934Z,82.32
2023-03-10T05:49:33.404Z,154.57
2023-03-10T05:50:37.685Z,283.40
2023-03-10T05:51:39.503Z,260.35
2023-03-10T05:52:43.793Z,68.63
2023-03-10T05:53:46.589Z,228.85
2023-03-10T05:54:54.102Z,235.95
2023-03-10T05:55:56.920Z,174.63
2023-03-10T05:56:59.681Z,154.80
2023-03-10T05:58:03.377Z,133.63
2023-03-10T05:59:06.848Z,26.13
2023-03-10T06:00:12.852Z,26.75
2023-03-10T06:01:22.987Z,38.85
2023-03-10T06:02:24.845Z,24.60
2023-03-10T06:03:29.886Z,48.17
2023-03-10T06:04:33.262Z,26.80
2023-03-10T06:05:37.440Z,24.80
2023-03-10T06:06:40.760Z,27.70
2023-03-10T06:07:42.961Z,32.72
2023-03-10T06:08:45.885Z,30.67
2023-03-10T06:09:48.021Z,30.40
2023-03-10T06:10:51.027Z,32.88
2023-03-10T06:11:52.989Z,32.95
2023-03-10T06:12:56.384Z,31.27
2023-03-10T06:13:58.206Z,27.35
2023-03-10T06:15:01.260Z,26.20
2023-03-10T06:16:05.611Z,31.55
2023-03-10T06:17:08.762Z,28.17
2023-03-10T06:18:10.582Z,31.70
2023-03-10T06:19:13.448Z,26.50
2023-03-10T06:20:15.747Z,27.60
2023-03-10T06:21:19.825Z,25.25
2023-03-10T06:22:22.036Z,22.67
2023-03-10T06:23:25.367Z,25.38
2023-03-10T06:24:28.935Z,25.30
2023-03-10T06:25:31.857Z,18.73
2023-03-10T06:26:33.607Z,19.80
2023-03-10T06:27:36.398Z,15.63
2023-03-10T06:28:40.768Z,15.52
2023-03-10T06:29:42.615Z,14.23
2023-03-10T06:30:45.385Z,15.10
2023-03-10T06:31:47.630Z,11.82
2023-03-10T06:32:50.583Z,10.75
2023-03-10T06:33:52.834Z,10.65
2023-03-10T06:34:55.666Z,10.70
2023-03-10T06:35:57.825Z,9.13
2023-03-10T06:37:01.997Z,10.48
2023-03-10T06:38:03.917Z,9.82
2023-03-10T06:39:06.931Z,9.85
2023-03-10T06:40:12.732Z,7.00
2023-03-10T06:41:16.359Z,9.18
2023-03-10T06:42:18.115Z,8.95
2023-03-10T06:43:20.984Z,8.15
2023-03-10T06:44:22.821Z,8.30
2023-03-10T06:45:25.542Z,8.07
2023-03-10T06:46:27.373Z,8.00
2023-03-10T06:47:30.160Z,8.18
2023-03-10T06:48:32.169Z,11.20
2023-03-10T06:49:35.350Z,8.20
2023-03-10T06:50:41.676Z,10.38
2023-03-10T06:51:43.446Z,8.30
2023-03-10T06:52:47.521Z,9.65
2023-03-10T06:53:50.908Z,12.88
2023-03-10T06:54:52.714Z,11.70
2023-03-10T06:55:59.717Z,12.20
2023-03-10T06:57:02.565Z,9.70
2023-03-10T06:58:05.285Z,9.82
2023-03-10T06:59:07.356Z,11.90
2023-03-10T07:00:15.567Z,12.00
2023-03-10T07:01:23.169Z,12.35
2023-03-10T07:02:25.970Z,12.32
2023-03-10T07:03:28.915Z,11.75
2023-03-10T07:04:31.754Z,14.32
2023-03-10T07:05:33.565Z,11.77
2023-03-10T07:06:36.383Z,9.48
2023-03-10T07:07:38.137Z,10.85
2023-03-10T07:08:42.205Z,13.07
2023-03-10T07:09:44.207Z,11.20
2023-03-10T07:10:46.956Z,11.40
2023-03-10T07:11:49.673Z,12.68
2023-03-10T07:12:55.149Z,11.05
2023-03-10T07:13:58.350Z,7.70
2023-03-10T07:15:00.532Z,10.60
2023-03-10T07:16:03.950Z,10.55
2023-03-10T07:17:05.821Z,10.63
2023-03-10T07:18:08.886Z,9.98
2023-03-10T07:19:11.628Z,7.38
2023-03-10T07:20:13.990Z,8.18
2023-03-10T07:21:18.674Z,8.23
2023-03-10T07:22:20.519Z,8.32
2023-03-10T07:23:23.498Z,8.50
2023-03-10T07:24:27.802Z,23.95
2023-03-10T07:25:29.835Z,10.77
2023-03-10T07:26:33.554Z,7.28
2023-03-10T07:27:35.340Z,7.78
2023-03-10T07:28:38.854Z,8.27
2023-03-10T07:29:40.628Z,7.25
2023-03-10T07:30:43.545Z,5.80
2023-03-10T07:31:45.655Z,5.13
2023-03-10T07:32:48.450Z,5.35
2023-03-10T07:33:51.405Z,6.90
2023-03-10T07:34:53.256Z,7.28
2023-03-10T07:35:56.200Z,5.53
2023-03-10T07:36:58.963Z,6.32
2023-03-10T07:38:00.932Z,5.43
2023-03-10T07:39:03.992Z,7.65
2023-03-10T07:40:10.581Z,4.93
2023-03-10T07:41:15.615Z,6.82
2023-03-10T07:42:18.323Z,7.53
2023-03-10T07:43:20.116Z,7.13
2023-03-10T07:44:23.218Z,5.28
2023-03-10T07:45:25.793Z,7.38
2023-03-10T07:46:29.096Z,6.18
2023-03-10T07:47:31.552Z,5.43
2023-03-10T07:48:34.477Z,6.18
2023-03-10T07:49:36.284Z,6.22
2023-03-10T07:50:39.188Z,3.78
2023-03-10T07:51:41.197Z,5.47
2023-03-10T07:52:43.976Z,6.45
2023-03-10T07:53:45.927Z,4.95
2023-03-10T07:54:49.217Z,5.20
2023-03-10T07:55:53.370Z,7.88
2023-03-10T07:56:56.577Z,6.45
2023-03-10T07:58:00.294Z,4.78
2023-03-10T07:59:03.106Z,4.38
2023-03-10T08:00:06.273Z,6.85
2023-03-10T08:01:17.116Z,4.75
2023-03-10T08:02:19.987Z,3.85
2023-03-10T08:03:23.170Z,5.05
2023-03-10T08:04:26.091Z,3.75
2023-03-10T08:05:28.025Z,4.97
2023-03-10T08:06:32.674Z,4.50
2023-03-10T08:07:34.763Z,3.33
2023-03-10T08:08:37.491Z,5.55
2023-03-10T08:09:39.411Z,3.70
2023-03-10T08:10:42.535Z,4.28
2023-03-10T08:11:45.647Z,5.80
2023-03-10T08:12:48.467Z,5.88
2023-03-10T08:13:50.530Z,4.05
2023-03-10T08:14:53.372Z,4.53
2023-03-10T08:15:55.376Z,7.15
2023-03-10T08:16:58.633Z,6.30
2023-03-10T08:18:05.197Z,3.75
2023-03-10T08:19:08.630Z,5.68
2023-03-10T08:20:12.496Z,4.30
2023-03-10T08:21:14.297Z,3.15
2023-03-10T08:22:17.203Z,7.85
2023-03-10T08:23:19.034Z,6.72
2023-03-10T08:24:21.763Z,4.30
2023-03-10T08:25:24.058Z,6.25
2023-03-10T08:26:26.817Z,4.45
2023-03-10T08:27:30.154Z,5.07
2023-03-10T08:28:35.194Z,5.45
2023-03-10T08:29:37.013Z,18.23
2023-03-10T08:30:53.239Z,6.30
2023-03-10T08:32:03.291Z,6.20
2023-03-10T08:33:07.645Z,4.50
2023-03-10T08:34:09.626Z,4.55
2023-03-10T08:35:13.019Z,4.60
2023-03-10T08:36:18.037Z,5.82
2023-03-10T08:37:20.820Z,4.57
2023-03-10T08:38:22.680Z,16.45
2023-03-10T08:39:27.608Z,7.60
2023-03-10T08:40:29.685Z,8.32
2023-03-10T08:41:36.194Z,7.03
2023-03-10T08:42:39.474Z,10.38
2023-03-10T08:43:42.829Z,4.60
2023-03-10T08:44:45.791Z,24.20
2023-03-10T08:45:47.579Z,5.53
2023-03-10T08:46:50.896Z,5.45
2023-03-10T08:47:52.811Z,10.20
2023-03-10T08:48:55.848Z,5.05
2023-03-10T08:49:58.016Z,10.10
2023-03-10T08:51:01.257Z,4.53
2023-03-10T08:52:04.124Z,12.50
2023-03-10T08:53:06.129Z,6.43
2023-03-10T08:54:09.637Z,3.97
2023-03-10T08:55:12.289Z,14.95
2023-03-10T08:56:15.469Z,4.63
2023-03-10T08:57:18.484Z,5.15
2023-03-10T08:58:23.010Z,4.35
2023-03-10T08:59:25.773Z,5.35
2023-03-10T09:00:28.261Z,6.18
2023-03-10T09:01:33.114Z,3.17
2023-03-10T09:02:35.074Z,4.50
2023-03-10T09:03:39.609Z,4.03
2023-03-10T09:04:41.558Z,4.78
2023-03-10T09:05:44.880Z,10.55
2023-03-10T09:06:47.150Z,4.18
2023-03-10T09:07:49.892Z,6.90
2023-03-10T09:08:52.032Z,7.97
2023-03-10T09:09:54.830Z,8.13
2023-03-10T09:10:57.776Z,4.63
2023-03-10T09:11:59.702Z,4.07
2023-03-10T09:13:13.384Z,4.68
2023-03-10T09:14:17.362Z,4.07
2023-03-10T09:15:20.241Z,5.93
2023-03-10T09:16:22.388Z,4.72
2023-03-10T09:17:25.231Z,4.60
2023-03-10T09:18:28.575Z,4.47
2023-03-10T09:19:31.395Z,7.25
2023-03-10T09:20:34.100Z,5.75
2023-03-10T09:21:36.101Z,3.97
2023-03-10T09:22:39.028Z,5.28
2023-03-10T09:23:43.378Z,4.40
2023-03-10T09:24:46.149Z,5.45
2023-03-10T09:25:47.966Z,3.60
2023-03-10T09:26:50.802Z,12.38
2023-03-10T09:27:52.580Z,6.68
2023-03-10T09:28:57.152Z,5.38
2023-03-10T09:30:01.795Z,2.92
2023-03-10T09:31:04.219Z,3.85
2023-03-10T09:32:09.089Z,4.53
2023-03-10T09:33:16.557Z,6.75
2023-03-10T09:34:19.327Z,6.65
2023-03-10T09:35:21.812Z,3.30
2023-03-10T09:36:24.726Z,6.85
2023-03-10T09:37:26.567Z,2.95
2023-03-10T09:38:29.988Z,3.45
2023-03-10T09:39:34.686Z,3.33
2023-03-10T09:40:37.456Z,2.80
2023-03-10T09:42:00.795Z,4.32
2023-03-10T09:43:05.334Z,4.22
2023-03-10T09:44:17.509Z,8.73
2023-03-10T09:45:30.526Z,2.70
2023-03-10T09:46:36.882Z,12.23
2023-03-10T09:47:46.177Z,2.92
2023-03-10T09:48:52.163Z,2.92
2023-03-10T09:50:02.156Z,2.25
2023-03-10T09:51:09.627Z,2.78
2023-03-10T09:52:19.910Z,1.98
2023-03-10T09:53:42.652Z,4.93
2023-03-10T09:54:51.990Z,2.60
2023-03-10T09:55:55.018Z,2.40
2023-03-10T09:56:59.923Z,9.07
2023-03-10T09:58:04.026Z,1.98
2023-03-10T09:59:11.190Z,5.38
2023-03-10T10:00:21.796Z,4.43
2023-03-10T10:01:28.150Z,4.43
2023-03-10T10:02:32.711Z,2.30
2023-03-10T10:03:51.549Z,2.47
2023-03-10T10:04:57.342Z,2.40
2023-03-10T10:05:59.715Z,15.65
2023-03-10T10:07:03.813Z,3.50
2023-03-10T10:08:15.966Z,3.15
2023-03-10T10:09:26.319Z,10.27
2023-03-10T10:10:29.432Z,3.20
2023-03-10T10:11:33.585Z,3.40
2023-03-10T10:12:36.041Z,3.38
2023-03-10T10:13:41.729Z,3.30
2023-03-10T10:14:56.569Z,31.33
2023-03-10T10:16:24.754Z,6.93
2023-03-10T10:17:39.239Z,6.90
2023-03-10T10:18:47.999Z,5.80
2023-03-10T10:19:50.191Z,2.33
2023-03-10T10:20:58.975Z,2.80
2023-03-10T10:22:04.591Z,2.65
2023-03-10T10:23:16.364Z,1.65
2023-03-10T10:24:19.678Z,4.43
2023-03-10T10:25:22.981Z,14.82
2023-03-10T10:26:27.427Z,3.17
2023-03-10T10:27:31.325Z,3.13
2023-03-10T10:28:41.765Z,3.35
2023-03-10T10:29:47.096Z,4.28
2023-03-10T10:30:49.630Z,4.00
2023-03-10T10:32:10.509Z,28.45
2023-03-10T10:33:14.711Z,16.58
2023-03-10T10:34:23.956Z,4.18
2023-03-10T10:35:27.287Z,5.38
2023-03-10T10:36:31.837Z,3.58
2023-03-10T10:37:38.796Z,8.80
2023-03-10T10:38:49.583Z,3.47
2023-03-10T10:39:53.674Z,2.35
2023-03-10T10:41:01.941Z,3.55
2023-03-10T10:42:15.597Z,8.35
2023-03-10T10:43:19.574Z,3.40
2023-03-10T10:44:21.586Z,4.55
2023-03-10T10:45:27.009Z,2.65
2023-03-10T10:46:30.822Z,10.90
2023-03-10T10:47:34.381Z,7.32
2023-03-10T10:48:43.077Z,5.15
2023-03-10T10:49:45.092Z,9.65
2023-03-10T10:50:54.153Z,9.57
2023-03-10T10:51:58.128Z,7.13
2023-03-10T10:53:19.807Z,5.57
2023-03-10T10:54:28.292Z,4.40
2023-03-10T10:55:34.373Z,3.27
2023-03-10T10:56:37.232Z,7.55
2023-03-10T10:57:46.265Z,5.07
2023-03-10T10:59:02.821Z,13.73
2023-03-10T11:00:18.441Z,3.20
2023-03-10T11:01:21.294Z,13.98
2023-03-10T11:02:25.438Z,4.78
2023-03-10T11:03:33.107Z,3.17
2023-03-10T11:04:44.991Z,4.07
2023-03-10T11:05:46.776Z,4.72
2023-03-10T11:06:49.739Z,5.57
2023-03-10T11:07:52.357Z,6.30
2023-03-10T11:09:05.695Z,12.30
2023-03-10T11:10:13.794Z,9.38
2023-03-10T11:11:22.524Z,4.30
2023-03-10T11:12:28.620Z,2.83
2023-03-10T11:13:35.649Z,7.43
2023-03-10T11:14:49.348Z,3.30
2023-03-10T11:15:53.364Z,5.83
2023-03-10T11:17:00.507Z,5.13
2023-03-10T11:18:08.930Z,3.93
2023-03-10T11:19:16.766Z,13.40
2023-03-10T11:20:26.801Z,3.70
2023-03-10T11:21:30.500Z,3.28
2023-03-10T11:22:38.993Z,4.22
2023-03-10T11:23:46.355Z,6.32
2023-03-10T11:24:53.452Z,5.82
2023-03-10T11:26:00.014Z,3.42
2023-03-10T11:27:08.071Z,5.07
2023-03-10T11:28:21.683Z,3.83
2023-03-10T11:29:31.764Z,5.82
2023-03-10T11:30:38.146Z,5.82
2023-03-10T11:31:45.007Z,3.22
2023-03-10T11:32:58.826Z,35.80
2023-03-10T11:34:19.716Z,4.13
2023-03-10T11:35:27.780Z,60.65
2023-03-10T11:36:49.631Z,5.18
2023-03-10T11:38:04.612Z,36.17
2023-03-10T11:39:11.562Z,3.60
2023-03-10T11:40:19.910Z,3.80
2023-03-10T11:41:25.892Z,5.00
2023-03-10T11:42:33.306Z,10.57
2023-03-10T11:43:42.996Z,4.00
2023-03-10T11:44:52.329Z,5.97
2023-03-10T11:45:55.512Z,6.20
2023-03-10T11:47:02.019Z,2.47
2023-03-10T11:48:34.634Z,4.83
2023-03-10T11:49:40.156Z,4.43
2023-03-10T11:50:50.865Z,6.30
2023-03-10T11:51:57.259Z,11.70
2023-03-10T11:53:03.396Z,4.00
2023-03-10T11:54:11.836Z,4.37
2023-03-10T11:55:18.838Z,8.00
2023-03-10T11:56:22.652Z,3.93
2023-03-10T11:57:26.793Z,6.23
2023-03-10T11:58:40.756Z,10.07
2023-03-10T11:59:48.874Z,6.57
2023-03-10T12:00:53.720Z,6.20
2023-03-10T12:01:59.298Z,9.27
2023-03-10T12:03:10.946Z,8.03
2023-03-10T12:04:16.685Z,8.47
2023-03-10T12:05:21.602Z,6.55
2023-03-10T12:06:30.460Z,10.40
2023-03-10T12:07:34.435Z,6.05
2023-03-10T12:08:37.358Z,7.60
2023-03-10T12:09:42.343Z,8.18
2023-03-10T12:10:44.412Z,8.23
2023-03-10T12:11:47.350Z,7.63
2023-03-10T12:12:51.059Z,7.13
2023-03-10T12:13:58.138Z,9.05
2023-03-10T12:15:01.653Z,6.60
2023-03-10T12:16:05.366Z,7.90
2023-03-10T12:17:11.696Z,6.78
2023-03-10T12:18:13.530Z,9.00
2023-03-10T12:19:16.394Z,6.82
2023-03-10T12:20:27.206Z,8.30
2023-03-10T12:21:32.465Z,5.93
2023-03-10T12:22:37.217Z,7.43
2023-03-10T12:23:42.153Z,7.38
2023-03-10T12:24:46.683Z,10.82
2023-03-10T12:25:49.927Z,6.88
2023-03-10T12:27:00.725Z,10.77
2023-03-10T12:28:14.343Z,10.93
2023-03-10T12:29:37.545Z,8.45
2023-03-10T12:30:47.524Z,7.57
2023-03-10T12:31:51.461Z,7.30
2023-03-10T12:32:53.472Z,9.98
2023-03-10T12:34:14.484Z,10.23
2023-03-10T12:35:36.691Z,6.53
2023-03-10T12:36:41.761Z,10.25
2023-03-10T12:37:43.582Z,12.85
2023-03-10T12:38:48.876Z,8.07
2023-03-10T12:39:51.636Z,8.43
2023-03-10T12:40:53.562Z,5.57
2023-03-10T12:41:57.257Z,7.72
2023-03-10T12:42:59.028Z,10.88
2023-03-10T12:44:02.545Z,6.93
2023-03-10T12:45:17.348Z,5.53
2023-03-10T12:46:23.521Z,8.07
2023-03-10T12:47:33.720Z,8.35
2023-03-10T12:48:41.314Z,5.43
2023-03-10T12:49:48.936Z,6.95
2023-03-10T12:50:54.654Z,6.53
2023-03-10T12:52:11.733Z,6.22
2023-03-10T12:53:26.608Z,5.82
2023-03-10T12:54:37.916Z,9.18
2023-03-10T12:55:43.492Z,10.23
2023-03-10T12:56:57.738Z,7.25
2023-03-10T12:58:24.518Z,6.30
2023-03-10T12:59:29.675Z,6.72
2023-03-10T13:00:41.988Z,6.85
2023-03-10T13:01:55.632Z,10.07
2023-03-10T13:03:02.691Z,7.80
2023-03-10T13:04:06.136Z,6.90
2023-03-10T13:05:20.352Z,9.57
2023-03-10T13:06:25.301Z,7.32
2023-03-10T13:07:29.629Z,8.70
2023-03-10T13:08:41.475Z,7.10
2023-03-10T13:09:47.201Z,9.40
2023-03-10T13:10:53.341Z,9.55
2023-03-10T13:11:58.995Z,9.77
2023-03-10T13:13:02.402Z,12.68
2023-03-10T13:14:10.595Z,8.68
2023-03-10T13:15:22.405Z,20.77
2023-03-10T13:16:26.724Z,12.68
2023-03-10T13:17:30.490Z,7.47
2023-03-10T13:18:33.968Z,8.90
2023-03-10T13:19:37.051Z,3.67
2023-03-10T13:20:40.076Z,3.25
2023-03-10T13:21:45.331Z,3.70
2023-03-10T13:22:56.904Z,10.27
2023-03-10T13:23:59.558Z,4.85
2023-03-10T13:25:04.251Z,3.80
2023-03-10T13:26:08.293Z,3.17
2023-03-10T13:27:14.483Z,3.42
2023-03-10T13:28:17.248Z,2.47
2023-03-10T13:29:20.040Z,3.45
2023-03-10T13:30:24.426Z,3.30
2023-03-10T13:31:27.903Z,9.23
2023-03-10T13:32:31.567Z,3.85
2023-03-10T13:33:42.964Z,3.80
2023-03-10T13:34:49.835Z,4.90
2023-03-10T13:35:52.621Z,3.15
2023-03-10T13:37:02.272Z,4.57
2023-03-10T13:38:08.077Z,3.80
2023-03-10T13:39:15.823Z,6.33
2023-03-10T13:40:18.914Z,7.40
2023-03-10T13:41:21.785Z,5.50
2023-03-10T13:42:40.889Z,3.80
2023-03-10T13:43:48.454Z,5.53
2023-03-10T13:44:51.770Z,3.92
2023-03-10T13:45:55.213Z,5.97
2023-03-10T13:47:00.544Z,30.63
2023-03-10T13:48:04.051Z,6.18
2023-03-10T13:49:07.692Z,13.48
2023-03-10T13:50:14.518Z,6.32
2023-03-10T13:51:20.434Z,4.50
2023-03-10T13:52:24.785Z,5.30
2023-03-10T13:53:28.079Z,10.75
2023-03-10T13:54:32.962Z,4.22
2023-03-10T13:55:39.959Z,8.38
2023-03-10T13:56:43.613Z,4.70
2023-03-10T13:57:47.113Z,3.95
2023-03-10T13:58:52.827Z,3.35
2023-03-10T13:59:57.035Z,3.08
2023-03-10T14:04:49.528Z,4.35
2023-03-10T14:05:54.792Z,6.28
2023-03-10T14:07:08.599Z,4.28
2023-03-10T14:08:27.877Z,3.00
2023-03-10T14:09:32.069Z,4.40
2023-03-10T14:10:34.278Z,5.82
2023-03-10T14:11:41.924Z,3.40